Time;durP1;ratioP1;P1;durP2;ratioP2;P2;SDS_P1;SDS_P2;PMS_P1;PMS_P2;Temp;Humidity;BMP_temperature;BMP_pressure;BME280_temperature;BME280_humidity;BME280_pressure;Samples;Min_cycle;Max_cycle;Signal;HPM_P1;HPM_P2
2023/01/08 00:02:08;;;;;;;13.18;6.38;;;;;;;-145.63;100.00;61273.97;4782910;30;20059;-62
2023/01/08 00:04:34;;;;;;;12.82;6.50;;;;;;;-145.63;100.00;61273.97;4788318;30;20042;-62
2023/01/08 00:07:00;;;;;;;14.63;6.35;;;;;;;-145.63;100.00;61273.97;4795144;29;20031;-61
2023/01/08 00:09:25;;;;;;;11.90;6.20;;;;;;;-145.63;100.00;61273.97;4782981;30;20062;-61
2023/01/08 00:11:51;;;;;;;13.15;6.32;;;;;;;-145.63;100.00;61273.97;4782905;30;20032;-61
2023/01/08 00:14:16;;;;;;;12.90;6.60;;;;;;;-145.63;100.00;61273.97;4782699;30;20077;-60
2023/01/08 00:16:42;;;;;;;11.93;6.40;;;;;;;-145.63;100.00;61273.97;4787955;30;20572;-60
2023/01/08 00:19:09;;;;;;;15.32;6.30;;;;;;;-145.63;100.00;61273.97;4793052;30;20051;-61
2023/01/08 00:21:35;;;;;;;9.15;5.82;;;;;;;-145.63;100.00;61273.97;4781821;30;20046;-60
2023/01/08 00:24:00;;;;;;;13.52;6.53;;;;;;;-145.63;100.00;61273.97;4799315;30;20031;-61
2023/01/08 00:26:26;;;;;;;14.82;6.65;;;;;;;-145.63;100.00;61273.97;4784168;29;20031;-61
2023/01/08 00:28:51;;;;;;;11.98;6.22;;;;;;;-145.63;100.00;61273.97;4776044;30;20216;-60
2023/01/08 00:31:17;;;;;;;11.75;6.30;;;;;;;-145.63;100.00;61273.97;4782441;30;20081;-60
2023/01/08 00:33:42;;;;;;;11.25;5.90;;;;;;;-145.63;100.00;61273.97;4782487;30;20066;-62
2023/01/08 00:36:16;;;;;;;10.70;6.25;;;;;;;-145.63;100.00;61273.97;4782454;30;20036;-61
2023/01/08 00:38:43;;;;;;;10.38;6.05;;;;;;;-145.63;100.00;61273.97;4764804;30;20097;-60
2023/01/08 00:41:08;;;;;;;9.65;5.57;;;;;;;-145.63;100.00;61273.97;4778475;30;20038;-59
2023/01/08 00:43:34;;;;;;;9.13;5.28;;;;;;;-145.63;100.00;61273.97;4782169;30;20047;-61
2023/01/08 00:46:00;;;;;;;10.50;5.95;;;;;;;-145.63;100.00;61273.97;4782322;30;20240;-61
2023/01/08 00:48:26;;;;;;;11.23;5.65;;;;;;;-145.63;100.00;61273.97;4781912;30;20039;-61
2023/01/08 00:50:52;;;;;;;10.32;5.95;;;;;;;-145.63;100.00;61273.97;4782324;30;20044;-60
2023/01/08 00:53:20;;;;;;;10.85;5.40;;;;;;;-145.63;100.00;61273.97;4793960;30;20369;-62
2023/01/08 00:55:46;;;;;;;7.60;5.18;;;;;;;-145.63;100.00;61273.97;4793974;29;20242;-61
2023/01/08 00:58:12;;;;;;;9.13;5.30;;;;;;;-145.63;100.00;61273.97;4785620;30;20086;-63
2023/01/08 01:00:38;;;;;;;8.05;5.47;;;;;;;-145.63;100.00;61273.97;4785395;30;20034;-61
2023/01/08 01:03:04;;;;;;;9.23;5.70;;;;;;;-145.63;100.00;61273.97;4782208;30;20095;-61
2023/01/08 01:05:30;;;;;;;11.50;5.75;;;;;;;-145.63;100.00;61273.97;4794104;30;20035;-61
2023/01/08 01:07:56;;;;;;;9.23;5.25;;;;;;;-145.63;100.00;61273.97;4787856;29;20104;-61
2023/01/08 01:10:22;;;;;;;9.65;5.95;;;;;;;-145.63;100.00;61273.97;4781762;30;20254;-61
2023/01/08 01:12:48;;;;;;;9.73;5.47;;;;;;;-145.63;100.00;61273.97;4781885;30;20046;-60
2023/01/08 01:15:16;;;;;;;11.10;5.90;;;;;;;-145.63;100.00;61273.97;4781921;30;20035;-61
2023/01/08 01:17:44;;;;;;;12.82;6.03;;;;;;;-145.63;100.00;61273.97;4781638;30;20052;-63
2023/01/08 01:20:13;;;;;;;12.63;6.30;;;;;;;-145.63;100.00;61273.97;4781453;30;20258;-63
2023/01/08 01:22:39;;;;;;;8.95;5.72;;;;;;;-145.63;100.00;61273.97;4786930;30;20062;-63
2023/01/08 01:25:05;;;;;;;10.35;6.32;;;;;;;-145.63;100.00;61273.97;4793865;30;20360;-62
2023/01/08 01:27:31;;;;;;;11.25;6.07;;;;;;;-145.63;100.00;61273.97;4781497;30;20031;-63
2023/01/08 01:29:57;;;;;;;11.90;5.65;;;;;;;-145.63;100.00;61273.97;4781696;30;20296;-63
2023/01/08 01:32:22;;;;;;;12.70;5.47;;;;;;;-145.63;100.00;61273.97;4795302;30;20339;-62
2023/01/08 01:34:48;;;;;;;10.30;5.28;;;;;;;-145.63;100.00;61273.97;4781162;30;20043;-62
2023/01/08 01:37:14;;;;;;;11.13;6.10;;;;;;;-145.63;100.00;61273.97;4781700;30;20300;-63
2023/01/08 01:39:43;;;;;;;9.63;5.72;;;;;;;-145.63;100.00;61273.97;4781525;30;20221;-62
2023/01/08 01:42:38;;;;;;;12.25;5.60;;;;;;;-145.63;100.00;61273.97;4781594;30;20055;-61
2023/01/08 01:44:58;;;;;;;6.97;4.25;;;;;;;-145.63;100.00;61273.97;4780982;30;20043;-60
2023/01/08 01:47:36;;;;;;;10.02;5.32;;;;;;;-145.63;100.00;61273.97;4781204;30;20384;-61
2023/01/08 01:50:12;;;;;;;10.85;5.20;;;;;;;-145.63;100.00;61273.97;4780890;30;20109;-60
2023/01/08 01:52:44;;;;;;;9.60;5.20;;;;;;;-145.63;100.00;61273.97;4781396;30;20100;-60
2023/01/08 01:55:12;;;;;;;11.30;5.57;;;;;;;-145.63;100.00;61273.97;4799128;29;20062;-60
2023/01/08 01:57:40;;;;;;;9.23;4.90;;;;;;;-145.63;100.00;61273.97;4787391;29;20098;-60
2023/01/08 02:00:08;;;;;;;8.20;5.03;;;;;;;-145.63;100.00;61273.97;4785078;30;20032;-60
2023/01/08 02:02:34;;;;;;;9.40;4.55;;;;;;;-145.63;100.00;61273.97;4781089;30;20038;-61
2023/01/08 02:05:00;;;;;;;9.43;5.05;;;;;;;-145.63;100.00;61273.97;4789377;30;20027;-61
2023/01/08 02:08:07;;;;;;;8.93;4.50;;;;;;;-145.63;100.00;61273.97;4790887;29;20103;-61
2023/01/08 02:10:39;;;;;;;8.23;4.78;;;;;;;-145.63;100.00;61273.97;4760071;30;20323;-61
2023/01/08 02:13:14;;;;;;;9.57;4.65;;;;;;;-145.63;100.00;61273.97;4761438;30;20032;-62
2023/01/08 02:15:51;;;;;;;9.52;4.72;;;;;;;-145.63;100.00;61273.97;4760960;30;20124;-62
2023/01/08 02:18:23;;;;;;;7.30;5.32;;;;;;;-145.63;100.00;61273.97;4761396;30;20308;-62
2023/01/08 02:20:51;;;;;;;6.57;4.18;;;;;;;-145.63;100.00;61273.97;4754230;30;20052;-62
2023/01/08 02:23:37;;;;;;;11.13;4.95;;;;;;;-145.63;100.00;61273.97;4772033;30;20047;-61
2023/01/08 02:26:22;;;;;;;9.55;5.32;;;;;;;-145.63;100.00;61273.97;4751734;30;20255;-60
2023/01/08 02:28:57;;;;;;;10.52;5.35;;;;;;;-145.63;100.00;61273.97;4760895;30;20292;-61
2023/01/08 02:31:25;;;;;;;9.32;4.88;;;;;;;-145.63;100.00;61273.97;4760891;30;20121;-60
2023/01/08 02:33:51;;;;;;;6.72;4.65;;;;;;;-145.63;100.00;61273.97;4760932;30;20059;-61
2023/01/08 02:36:47;;;;;;;6.70;4.82;;;;;;;-145.63;100.00;61273.97;4746092;30;20255;-61
2023/01/08 02:39:12;;;;;;;10.38;5.10;;;;;;;-145.63;100.00;61273.97;4750315;30;20048;-62
2023/01/08 02:41:50;;;;;;;8.75;5.00;;;;;;;-145.63;100.00;61273.97;4773200;30;20051;-60
2023/01/08 02:44:21;;;;;;;9.35;5.18;;;;;;;-145.63;100.00;61273.97;4780236;30;20066;-60
2023/01/08 02:46:51;;;;;;;9.07;4.85;;;;;;;-145.63;100.00;61273.97;4780449;30;20058;-60
2023/01/08 02:49:19;;;;;;;9.73;5.03;;;;;;;-145.63;100.00;61273.97;4779988;30;20055;-60
2023/01/08 02:51:52;;;;;;;10.05;5.15;;;;;;;-145.63;100.00;61273.97;4771216;30;20060;-60
2023/01/08 02:54:26;;;;;;;8.98;4.82;;;;;;;-145.63;100.00;61273.97;4779846;30;20036;-60
2023/01/08 02:57:13;;;;;;;9.50;5.28;;;;;;;-145.63;100.00;61273.97;4766923;30;20339;-59
2023/01/08 02:59:42;;;;;;;6.97;4.55;;;;;;;-145.63;100.00;61273.97;4784551;30;20271;-60
2023/01/08 03:02:08;;;;;;;11.13;5.70;;;;;;;-145.63;100.00;61273.97;4781212;30;20308;-61
2023/01/08 03:04:43;;;;;;;8.55;4.78;;;;;;;-145.63;100.00;61273.97;4781483;30;20039;-61
2023/01/08 03:07:08;;;;;;;6.93;4.55;;;;;;;-145.63;100.00;61273.97;4780056;30;20031;-60
2023/01/08 03:09:34;;;;;;;6.68;4.72;;;;;;;-145.63;100.00;61273.97;4780002;30;20059;-60
2023/01/08 03:12:15;;;;;;;8.23;4.82;;;;;;;-145.63;100.00;61273.97;4779044;30;20036;-62
2023/01/08 03:14:56;;;;;;;8.18;4.40;;;;;;;-145.63;100.00;61273.97;4782553;30;20330;-61
2023/01/08 03:17:45;;;;;;;8.82;4.00;;;;;;;-145.63;100.00;61273.97;4786802;29;20043;-62
2023/01/08 03:20:15;;;;;;;10.20;4.50;;;;;;;-145.63;100.00;61273.97;4782195;30;20099;-61
2023/01/08 03:22:45;;;;;;;7.85;4.32;;;;;;;-145.63;100.00;61273.97;4797464;29;20027;-60
2023/01/08 03:25:13;;;;;;;6.88;3.80;;;;;;;-145.63;100.00;61273.97;4792185;29;20035;-61
2023/01/08 03:27:46;;;;;;;8.55;4.72;;;;;;;-145.63;100.00;61273.97;4779987;30;20035;-61
2023/01/08 03:30:14;;;;;;;9.20;4.15;;;;;;;-145.63;100.00;61273.97;4779963;30;20028;-62
2023/01/08 03:32:42;;;;;;;7.35;4.22;;;;;;;-145.63;100.00;61273.97;4779762;30;20098;-61
2023/01/08 03:35:10;;;;;;;8.18;4.47;;;;;;;-145.63;100.00;61273.97;4779779;30;20102;-63
2023/01/08 03:37:40;;;;;;;9.18;4.25;;;;;;;-145.63;100.00;61273.97;4789399;30;20072;-61
2023/01/08 03:40:12;;;;;;;7.72;3.83;;;;;;;-145.63;100.00;61273.97;4792838;29;20028;-62
2023/01/08 03:42:39;;;;;;;7.18;4.20;;;;;;;-145.63;100.00;61273.97;4778475;30;20040;-61
2023/01/08 03:45:05;;;;;;;5.82;3.92;;;;;;;-145.63;100.00;61273.97;4779418;30;20208;-60
2023/01/08 03:47:34;;;;;;;5.63;3.80;;;;;;;-145.63;100.00;61273.97;4779541;30;20087;-61
2023/01/08 03:50:02;;;;;;;6.57;4.10;;;;;;;-145.63;100.00;61273.97;4779495;30;20061;-61
2023/01/08 03:52:30;;;;;;;8.63;4.03;;;;;;;-145.63;100.00;61273.97;4779805;30;20089;-61
2023/01/08 03:54:56;;;;;;;6.47;3.75;;;;;;;-145.63;100.00;61273.97;4791864;29;20050;-61
2023/01/08 03:57:23;;;;;;;7.13;4.72;;;;;;;-145.63;100.00;61273.97;4779283;30;20052;-61
2023/01/08 03:59:48;;;;;;;5.40;3.17;;;;;;;-145.63;100.00;61273.97;4784170;30;20035;-61
2023/01/08 04:02:15;;;;;;;5.22;3.45;;;;;;;-145.63;100.00;61273.97;4780129;30;20335;-64
2023/01/08 04:04:40;;;;;;;8.50;4.00;;;;;;;-145.63;100.00;61273.97;4783101;30;20032;-61
2023/01/08 04:07:06;;;;;;;8.27;3.50;;;;;;;-145.63;100.00;61273.97;4779535;30;20273;-61
2023/01/08 04:09:32;;;;;;;6.50;3.45;;;;;;;-145.63;100.00;61273.97;4791033;30;20319;-61
2023/01/08 04:11:57;;;;;;;8.20;4.57;;;;;;;-145.63;100.00;61273.97;4779478;30;20035;-61
2023/01/08 04:14:23;;;;;;;5.72;3.65;;;;;;;-145.63;100.00;61273.97;4779406;30;20039;-61
2023/01/08 04:16:49;;;;;;;6.97;3.88;;;;;;;-145.63;100.00;61273.97;4779297;30;20052;-62
2023/01/08 04:19:14;;;;;;;7.97;4.03;;;;;;;-145.63;100.00;61273.97;4778394;30;20054;-61
2023/01/08 04:21:40;;;;;;;5.78;3.53;;;;;;;-145.63;100.00;61273.97;4783020;30;20087;-63
2023/01/08 04:24:06;;;;;;;7.80;3.85;;;;;;;-145.63;100.00;61273.97;4781770;30;20304;-63
2023/01/08 04:26:32;;;;;;;6.68;3.47;;;;;;;-145.63;100.00;61273.97;4779042;30;20047;-62
2023/01/08 04:28:58;;;;;;;7.28;3.88;;;;;;;-145.63;100.00;61273.97;4794565;30;20081;-61
2023/01/08 04:31:23;;;;;;;8.00;3.70;;;;;;;-145.63;100.00;61273.97;4789270;29;20083;-61
2023/01/08 04:33:49;;;;;;;7.55;3.53;;;;;;;-145.63;100.00;61273.97;4780821;30;20111;-61
2023/01/08 04:36:15;;;;;;;6.18;3.65;;;;;;;-145.63;100.00;61273.97;4782145;30;20031;-62
2023/01/08 04:38:40;;;;;;;5.72;3.30;;;;;;;-145.63;100.00;61273.97;4781101;30;20058;-61
2023/01/08 04:41:06;;;;;;;6.25;3.47;;;;;;;-145.63;100.00;61273.97;4797631;30;20038;-62
2023/01/08 04:43:32;;;;;;;5.30;3.00;;;;;;;-145.63;100.00;61273.97;4792890;29;20031;-61
2023/01/08 04:45:59;;;;;;;4.93;2.97;;;;;;;-145.63;100.00;61273.97;4782386;30;20039;-61
2023/01/08 04:48:26;;;;;;;6.47;3.42;;;;;;;-145.63;100.00;61273.97;4781061;30;20040;-63
2023/01/08 04:50:52;;;;;;;6.32;3.00;;;;;;;-145.63;100.00;61273.97;4782030;30;20072;-62
2023/01/08 04:53:17;;;;;;;6.65;3.78;;;;;;;-145.63;100.00;61273.97;4787268;30;20331;-60
2023/01/08 04:55:43;;;;;;;5.22;2.70;;;;;;;-145.63;100.00;61273.97;4808938;29;20027;-60
2023/01/08 04:58:08;;;;;;;4.75;2.58;;;;;;;-145.63;100.00;61273.97;4787083;29;20032;-60
2023/01/08 05:00:34;;;;;;;7.80;3.60;;;;;;;-145.63;100.00;61273.97;4785030;30;20042;-61
2023/01/08 05:03:00;;;;;;;5.28;2.72;;;;;;;-145.63;100.00;61273.97;4782371;30;20396;-60
2023/01/08 05:05:25;;;;;;;4.43;3.40;;;;;;;-145.63;100.00;61273.97;4790336;30;20038;-60
2023/01/08 05:07:51;;;;;;;7.32;3.17;;;;;;;-145.63;100.00;61273.97;4782802;29;20032;-61
2023/01/08 05:10:17;;;;;;;4.57;2.60;;;;;;;-145.63;100.00;61273.97;4781998;30;20039;-59
2023/01/08 05:12:42;;;;;;;4.90;3.30;;;;;;;-145.63;100.00;61273.97;4781826;30;20164;-60
2023/01/08 05:15:09;;;;;;;6.28;3.00;;;;;;;-145.63;100.00;61273.97;4781945;30;20058;-61
2023/01/08 05:17:34;;;;;;;5.38;2.72;;;;;;;-145.63;100.00;61273.97;4781595;30;20284;-61
2023/01/08 05:20:00;;;;;;;5.82;3.00;;;;;;;-145.63;100.00;61273.97;4792019;30;20032;-60
2023/01/08 05:22:25;;;;;;;4.93;3.08;;;;;;;-145.63;100.00;61273.97;4786282;30;20027;-60
2023/01/08 05:24:51;;;;;;;6.15;3.35;;;;;;;-145.63;100.00;61273.97;4789904;29;20301;-61
2023/01/08 05:27:16;;;;;;;6.68;3.15;;;;;;;-145.63;100.00;61273.97;4781587;30;20027;-61
2023/01/08 05:29:42;;;;;;;6.80;3.33;;;;;;;-145.63;100.00;61273.97;4781770;30;20099;-61
2023/01/08 05:32:15;;;;;;;6.47;3.38;;;;;;;-145.63;100.00;61273.97;4781647;30;20032;-60
2023/01/08 05:34:42;;;;;;;6.35;3.05;;;;;;;-145.63;100.00;61273.97;4781462;30;20040;-61
2023/01/08 05:37:08;;;;;;;5.00;2.78;;;;;;;-145.63;100.00;61273.97;4780168;30;20059;-61
2023/01/08 05:39:33;;;;;;;7.63;3.22;;;;;;;-145.63;100.00;61273.97;4781460;30;20096;-61
2023/01/08 05:41:59;;;;;;;6.40;2.80;;;;;;;-145.63;100.00;61273.97;4781360;30;20032;-60
2023/01/08 05:44:25;;;;;;;4.72;3.03;;;;;;;-145.63;100.00;61273.97;4777036;30;20380;-61
2023/01/08 05:46:52;;;;;;;9.18;3.53;;;;;;;-145.63;100.00;61273.97;4774858;30;20349;-62
2023/01/08 05:49:18;;;;;;;7.75;3.85;;;;;;;-145.63;100.00;61273.97;4779769;30;20078;-60
2023/01/08 05:51:44;;;;;;;7.00;3.20;;;;;;;-145.63;100.00;61273.97;4779171;30;20220;-62
2023/01/08 05:54:10;;;;;;;4.95;2.95;;;;;;;-145.63;100.00;61273.97;4785475;30;20040;-61
2023/01/08 05:56:35;;;;;;;6.10;3.20;;;;;;;-145.63;100.00;61273.97;4780943;30;20047;-62
2023/01/08 05:59:01;;;;;;;5.97;3.33;;;;;;;-145.63;100.00;61273.97;4785591;30;20126;-60
2023/01/08 06:01:26;;;;;;;8.38;3.72;;;;;;;-145.63;100.00;61273.97;4786169;30;20035;-60
2023/01/08 06:03:55;;;;;;;5.30;3.28;;;;;;;-145.63;100.00;61273.97;4777701;30;20312;-61
2023/01/08 06:06:20;;;;;;;4.32;3.20;;;;;;;-145.63;100.00;61273.97;4787452;30;20035;-61
2023/01/08 06:08:46;;;;;;;7.50;4.18;;;;;;;-145.63;100.00;61273.97;4776190;30;20280;-62
2023/01/08 06:11:12;;;;;;;4.97;3.40;;;;;;;-145.63;100.00;61273.97;4775371;30;20088;-61
2023/01/08 06:13:41;;;;;;;5.63;3.05;;;;;;;-145.63;100.00;61273.97;4780167;30;20119;-63
2023/01/08 06:16:06;;;;;;;7.50;3.33;;;;;;;-145.63;100.00;61273.97;4780701;30;20023;-61
2023/01/08 06:18:32;;;;;;;5.95;3.42;;;;;;;-145.63;100.00;61273.97;4786865;30;20394;-62
2023/01/08 06:20:58;;;;;;;6.55;2.90;;;;;;;-145.63;100.00;61273.97;4796827;29;20059;-61
2023/01/08 06:23:24;;;;;;;6.45;3.80;;;;;;;-145.63;100.00;61273.97;4782812;29;20024;-62
2023/01/08 06:25:54;;;;;;;5.53;3.47;;;;;;;-145.63;100.00;61273.97;4780336;30;20027;-60
2023/01/08 06:28:20;;;;;;;7.07;3.90;;;;;;;-145.63;100.00;61273.97;4780246;30;20220;-60
2023/01/08 06:30:45;;;;;;;6.95;3.80;;;;;;;-145.63;100.00;61273.97;4780491;30;20031;-61
2023/01/08 06:33:11;;;;;;;7.15;3.53;;;;;;;-145.63;100.00;61273.97;4784916;30;20027;-63
2023/01/08 06:35:37;;;;;;;4.63;3.47;;;;;;;-145.63;100.00;61273.97;4788597;30;20031;-62
2023/01/08 06:38:02;;;;;;;5.45;3.17;;;;;;;-145.63;100.00;61273.97;4786984;30;20044;-62
2023/01/08 06:40:28;;;;;;;6.35;3.85;;;;;;;-145.63;100.00;61273.97;4781207;30;20089;-61
2023/01/08 06:42:53;;;;;;;7.25;3.78;;;;;;;-145.63;100.00;61273.97;4779732;30;20050;-60
2023/01/08 06:45:19;;;;;;;6.82;3.95;;;;;;;-145.63;100.00;61273.97;4780061;30;20031;-63
2023/01/08 06:47:44;;;;;;;8.43;3.67;;;;;;;-145.63;100.00;61273.97;4781889;30;20054;-62
2023/01/08 06:50:11;;;;;;;7.28;4.07;;;;;;;-145.63;100.00;61273.97;4785271;30;20114;-60
2023/01/08 06:52:37;;;;;;;4.53;3.00;;;;;;;-145.63;100.00;61273.97;4783031;30;20039;-61
2023/01/08 06:55:04;;;;;;;7.32;3.97;;;;;;;-145.63;100.00;61273.97;4784079;29;20039;-61
2023/01/08 06:57:31;;;;;;;8.60;3.78;;;;;;;-145.63;100.00;61273.97;4791664;30;20047;-61
2023/01/08 06:59:56;;;;;;;8.70;3.88;;;;;;;-145.63;100.00;61273.97;4784217;29;20315;-62
2023/01/08 07:02:22;;;;;;;6.70;3.60;;;;;;;-145.63;100.00;61273.97;4783007;30;20064;-62
2023/01/08 07:04:48;;;;;;;7.07;4.00;;;;;;;-145.63;100.00;61273.97;4789397;30;20344;-61
2023/01/08 07:07:14;;;;;;;8.32;3.63;;;;;;;-145.63;100.00;61273.97;4788819;30;20031;-61
2023/01/08 07:09:40;;;;;;;5.75;3.63;;;;;;;-145.63;100.00;61273.97;4788574;30;20092;-61
2023/01/08 07:12:10;;;;;;;5.45;3.53;;;;;;;-145.63;100.00;61273.97;4787207;30;20032;-61
2023/01/08 07:14:35;;;;;;;9.02;4.70;;;;;;;-145.63;100.00;61273.97;4786439;30;20050;-60
2023/01/08 07:17:01;;;;;;;7.70;3.67;;;;;;;-145.63;100.00;61273.97;4788767;30;20328;-61
2023/01/08 07:19:26;;;;;;;7.38;3.92;;;;;;;-145.63;100.00;61273.97;4787178;30;20054;-63
2023/01/08 07:21:52;;;;;;;6.68;4.10;;;;;;;-145.63;100.00;61273.97;4788476;29;20042;-61
2023/01/08 07:24:17;;;;;;;8.07;4.13;;;;;;;-145.63;100.00;61273.97;4790085;30;20031;-62
2023/01/08 07:26:43;;;;;;;6.65;4.32;;;;;;;-145.63;100.00;61273.97;4787308;30;20381;-62
2023/01/08 07:29:08;;;;;;;10.07;4.72;;;;;;;-145.63;100.00;61273.97;4787844;29;20024;-61
2023/01/08 07:31:34;;;;;;;11.80;4.40;;;;;;;-145.63;100.00;61273.97;4789286;29;20103;-62
2023/01/08 07:34:00;;;;;;;7.57;4.40;;;;;;;-145.63;100.00;61273.97;4783340;29;20320;-62
2023/01/08 07:36:25;;;;;;;6.35;3.67;;;;;;;-145.63;100.00;61273.97;4779344;30;20031;-62
2023/01/08 07:38:51;;;;;;;10.60;4.60;;;;;;;-145.63;100.00;61273.97;4785323;30;20070;-63
2023/01/08 07:41:16;;;;;;;13.07;6.70;;;;;;;-145.63;100.00;61273.97;4787367;30;20036;-65
2023/01/08 07:43:42;;;;;;;9.80;4.50;;;;;;;-145.63;100.00;61273.97;4788869;30;20500;-62
2023/01/08 07:46:08;;;;;;;9.95;4.55;;;;;;;-145.63;100.00;61273.97;4788916;30;20039;-65
2023/01/08 07:48:33;;;;;;;8.30;4.72;;;;;;;-145.63;100.00;61273.97;4787898;29;20032;-64
2023/01/08 07:51:04;;;;;;;8.40;4.28;;;;;;;-145.63;100.00;61273.97;4787760;29;20027;-62
2023/01/08 07:53:30;;;;;;;8.75;4.75;;;;;;;-145.63;100.00;61273.97;4786306;30;20043;-62
2023/01/08 07:56:04;;;;;;;8.45;4.38;;;;;;;-145.63;100.00;61273.97;4779346;30;20091;-63
2023/01/08 07:58:30;;;;;;;6.97;4.65;;;;;;;-145.63;100.00;61273.97;4784648;30;20102;-62
2023/01/08 08:00:56;;;;;;;8.23;4.60;;;;;;;-145.63;100.00;61273.97;4786309;30;20307;-62
2023/01/08 08:03:22;;;;;;;10.10;4.93;;;;;;;-145.63;100.00;61273.97;4789029;30;20219;-62
2023/01/08 08:05:48;;;;;;;9.63;5.20;;;;;;;-145.63;100.00;61273.97;4787316;30;20042;-63
2023/01/08 08:08:14;;;;;;;9.63;4.72;;;;;;;-145.63;100.00;61273.97;4790483;30;20088;-63
2023/01/08 08:10:41;;;;;;;7.00;4.35;;;;;;;-145.63;100.00;61273.97;4790456;29;20050;-62
2023/01/08 08:13:07;;;;;;;9.00;4.40;;;;;;;-145.63;100.00;61273.97;4791485;29;20047;-62
2023/01/08 08:15:34;;;;;;;7.90;4.55;;;;;;;-145.63;100.00;61273.97;4791129;29;20102;-62
2023/01/08 08:18:00;;;;;;;9.40;5.10;;;;;;;-145.63;100.00;61273.97;4791158;30;20040;-62
2023/01/08 08:20:26;;;;;;;7.45;4.60;;;;;;;-145.63;100.00;61273.97;4791810;29;20032;-64
2023/01/08 08:22:58;;;;;;;7.90;4.60;;;;;;;-145.63;100.00;61273.97;4791061;30;20343;-63
2023/01/08 08:25:27;;;;;;;10.23;5.15;;;;;;;-145.63;100.00;61273.97;4789763;30;20072;-64
2023/01/08 08:27:58;;;;;;;10.20;5.65;;;;;;;-145.63;100.00;61273.97;4790738;30;20047;-62
2023/01/08 08:30:25;;;;;;;10.68;5.22;;;;;;;-145.63;100.00;61273.97;4776328;30;20347;-62
2023/01/08 08:32:51;;;;;;;9.32;5.05;;;;;;;-145.63;100.00;61273.97;4782246;30;20039;-63
2023/01/08 08:35:17;;;;;;;6.93;4.78;;;;;;;-145.63;100.00;61273.97;4791758;29;20227;-61
2023/01/08 08:37:42;;;;;;;9.13;4.85;;;;;;;-145.63;100.00;61273.97;4792612;29;20059;-64
2023/01/08 08:40:09;;;;;;;8.85;4.68;;;;;;;-145.63;100.00;61273.97;4789846;29;20337;-62
2023/01/08 08:42:34;;;;;;;9.48;4.82;;;;;;;-145.63;100.00;61273.97;4791662;29;20094;-62
2023/01/08 08:45:00;;;;;;;8.82;4.70;;;;;;;-145.63;100.00;61273.97;4789139;30;20103;-61
2023/01/08 08:47:25;;;;;;;7.63;4.30;;;;;;;-145.63;100.00;61273.97;4786883;30;20054;-62
2023/01/08 08:49:51;;;;;;;13.25;5.18;;;;;;;-145.63;100.00;61273.97;4787204;29;20388;-64
2023/01/08 08:52:16;;;;;;;12.70;4.75;;;;;;;-145.63;100.00;61273.97;4791200;29;20244;-61
2023/01/08 08:54:42;;;;;;;7.07;4.60;;;;;;;-145.63;100.00;61273.97;4789135;29;20031;-62
2023/01/08 08:57:08;;;;;;;7.53;5.07;;;;;;;-145.63;100.00;61273.97;4789955;30;20248;-62
2023/01/08 08:59:34;;;;;;;11.65;5.65;;;;;;;-145.63;100.00;61273.97;4790122;29;20051;-62
2023/01/08 09:02:00;;;;;;;7.40;4.53;;;;;;;-145.63;100.00;61273.97;4790241;29;20063;-62
2023/01/08 09:04:29;;;;;;;10.45;5.43;;;;;;;-145.63;100.00;61273.97;4787058;30;20090;-63
2023/01/08 09:06:55;;;;;;;10.50;5.30;;;;;;;-145.63;100.00;61273.97;4789618;30;20047;-62
2023/01/08 09:09:21;;;;;;;14.75;13.10;;;;;;;-145.63;100.00;61273.97;4805182;29;20084;-60
2023/01/08 09:11:46;;;;;;;8.55;5.38;;;;;;;-145.63;100.00;61273.97;4788718;30;20059;-62
2023/01/08 09:14:12;;;;;;;13.63;5.97;;;;;;;-145.63;100.00;61273.97;4789911;30;20054;-62
2023/01/08 09:16:37;;;;;;;9.13;5.55;;;;;;;-145.63;100.00;61273.97;4788385;30;20358;-61
2023/01/08 09:19:05;;;;;;;9.07;5.82;;;;;;;-145.63;100.00;61273.97;4789299;29;20046;-61
2023/01/08 09:21:31;;;;;;;12.52;5.93;;;;;;;-145.63;100.00;61273.97;4790456;29;20027;-62
2023/01/08 09:23:56;;;;;;;10.60;5.57;;;;;;;-145.63;100.00;61273.97;4804344;29;20027;-63
2023/01/08 09:26:22;;;;;;;9.18;5.40;;;;;;;-145.63;100.00;61273.97;4788533;30;20039;-61
2023/01/08 09:28:48;;;;;;;9.70;5.72;;;;;;;-145.63;100.00;61273.97;4789429;29;20251;-62
2023/01/08 09:31:13;;;;;;;9.20;5.35;;;;;;;-145.63;100.00;61273.97;4790117;30;20256;-61
2023/01/08 09:33:39;;;;;;;10.07;6.22;;;;;;;-145.63;100.00;61273.97;4789254;29;20023;-62
2023/01/08 09:36:09;;;;;;;10.90;6.13;;;;;;;-145.63;100.00;61273.97;4790025;30;20073;-61
2023/01/08 09:38:35;;;;;;;9.90;6.20;;;;;;;-145.63;100.00;61273.97;4790047;29;20031;-61
2023/01/08 09:41:04;;;;;;;12.30;7.18;;;;;;;-145.63;100.00;61273.97;4790145;29;20102;-61
2023/01/08 09:43:33;;;;;;;11.95;6.00;;;;;;;-145.63;100.00;61273.97;4787436;30;20055;-62
2023/01/08 09:46:02;;;;;;;11.80;6.50;;;;;;;-145.63;100.00;61273.97;4789387;30;20043;-63
2023/01/08 09:48:31;;;;;;;12.65;7.03;;;;;;;-145.63;100.00;61273.97;4789168;30;20059;-62
2023/01/08 09:50:57;;;;;;;13.80;6.68;;;;;;;-145.63;100.00;61273.97;4789652;29;20399;-63
2023/01/08 09:53:23;;;;;;;13.25;6.65;;;;;;;-145.63;100.00;61273.97;4789362;30;20043;-61
2023/01/08 09:56:02;;;;;;;11.70;7.05;;;;;;;-145.63;100.00;61273.97;4790110;29;20040;-62
2023/01/08 09:58:49;;;;;;;11.20;6.10;;;;;;;-145.63;100.00;61273.97;4786192;30;20023;-64
2023/01/08 10:01:18;;;;;;;11.40;6.90;;;;;;;-145.63;100.00;61273.97;4790277;30;20216;-62
2023/01/08 10:03:48;;;;;;;12.18;6.68;;;;;;;-145.63;100.00;61273.97;4788051;29;20056;-60
2023/01/08 10:06:15;;;;;;;11.50;6.93;;;;;;;-145.63;100.00;61273.97;4788568;30;20111;-62
2023/01/08 10:08:41;;;;;;;11.38;6.55;;;;;;;-145.63;100.00;61273.97;4789787;29;20323;-62
2023/01/08 10:11:08;;;;;;;9.68;6.15;;;;;;;-145.63;100.00;61273.97;4790507;30;20039;-61
2023/01/08 10:13:38;;;;;;;10.27;6.97;;;;;;;-145.63;100.00;61273.97;4787840;29;20224;-63
2023/01/08 10:16:10;;;;;;;12.63;6.53;;;;;;;-145.63;100.00;61273.97;4790010;30;20023;-62
2023/01/08 10:18:36;;;;;;;11.30;6.50;;;;;;;-145.63;100.00;61273.97;4788688;29;20290;-60
2023/01/08 10:21:02;;;;;;;11.90;7.07;;;;;;;-145.63;100.00;61273.97;4789670;30;20031;-62
2023/01/08 10:23:28;;;;;;;10.93;6.78;;;;;;;-145.63;100.00;61273.97;4790118;29;20050;-62
2023/01/08 10:25:57;;;;;;;12.85;7.03;;;;;;;-145.63;100.00;61273.97;4789869;30;20139;-61
2023/01/08 10:28:29;;;;;;;13.15;7.35;;;;;;;-145.63;100.00;61273.97;4789473;29;20090;-61
2023/01/08 10:31:07;;;;;;;15.13;7.88;;;;;;;-145.63;100.00;61273.97;4799974;29;20057;-62
2023/01/08 10:33:45;;;;;;;9.98;6.43;;;;;;;-145.63;100.00;61273.97;4780318;30;20038;-63
2023/01/08 10:36:18;;;;;;;13.40;7.22;;;;;;;-145.63;100.00;61273.97;4782608;30;20291;-62
2023/01/08 10:39:01;;;;;;;11.70;7.18;;;;;;;-145.63;100.00;61273.97;4787030;30;20031;-61
2023/01/08 10:41:27;;;;;;;11.50;7.25;;;;;;;-145.63;100.00;61273.97;4786490;30;20038;-63
2023/01/08 10:43:57;;;;;;;14.40;7.53;;;;;;;-145.63;100.00;61273.97;4790166;29;20037;-62
2023/01/08 10:46:24;;;;;;;14.48;8.20;;;;;;;-145.63;100.00;61273.97;4786574;29;20059;-62
2023/01/08 10:48:55;;;;;;;12.30;7.30;;;;;;;-145.63;100.00;61273.97;4787337;29;20063;-62
2023/01/08 10:51:22;;;;;;;;;;;;;;;-145.63;100.00;61273.97;4762968;30;20089;-62
2023/01/08 10:53:49;;;;;;;14.02;7.22;;;;;;;-145.63;100.00;61273.97;4776277;30;19914;-64
2023/01/08 10:56:28;;;;;;;12.93;7.38;;;;;;;-145.63;100.00;61273.97;4779859;30;20354;-63
2023/01/08 10:58:55;;;;;;;13.60;7.28;;;;;;;-145.63;100.00;61273.97;4779821;30;20328;-62
2023/01/08 11:01:25;;;;;;;14.02;7.53;;;;;;;-145.63;100.00;61273.97;4778911;30;20027;-62
2023/01/08 11:03:53;;;;;;;14.52;7.60;;;;;;;-145.63;100.00;61273.97;4780142;30;20032;-61
2023/01/08 11:06:28;;;;;;;13.48;7.32;;;;;;;-145.63;100.00;61273.97;4779853;30;20044;-63
2023/01/08 11:08:59;;;;;;;14.02;8.27;;;;;;;-145.63;100.00;61273.97;4779828;30;20070;-62
2023/01/08 11:11:31;;;;;;;;;;;;;;;-145.63;100.00;61273.97;4780332;30;20032;-62